• Join FlightAware (Why Join?)
  • Login
  • US Flag 
04:39AM EDT


 

Airport Tracker/Info


-or-


 

Live Flight TrackerFlight Track Log ✈ KAP5 ✈ 20-Oct-2013 ✈ KBHB - KBOS

Flight Track Log - Related Links

Times and Time Zones

All times are in EDT time to prevent confusion due to time zone crossing. See the KAP5 flight status page for this flight to view local times or setup timezone preferences in your user account.

Time Position Orientation Groundspeed Altitude Reporting Facility
EDT Latitude Longitude Course Direction KTS MPH feet Rate Location/Type
05:02PM 44.3258 -68.5175 223° Southwest 111 128 5,800  Level Boston Center
05:03PM 44.2983 -68.5508 221° Southwest 109 125 6,400 240 Climbing Boston Center
05:04PM 44.2764 -68.5811 225° Southwest 115 132 6,400  Level Boston Center
05:05PM 44.2494 -68.6242 229° Southwest 137 158 6,500  Climbing Boston Center
05:06PM 44.2776 -68.5898 224° Southwest  Level Estimated
05:06PM 44.2161 -68.6667 222° Southwest 154 177 6,500  Level Boston Center
05:07PM 44.2489 -68.6277 223° Southwest  Level Estimated
05:07PM 44.1847 -68.7117 226° Southwest 160 184 6,500  Level Boston Center
05:08PM 44.1456 -68.7656 225° Southwest 163 188 6,400 -60 Descending Boston Center
05:09PM 44.1139 -68.8092 225° Southwest 160 184 6,400  Level Boston Center
05:10PM 44.0814 -68.8508 223° Southwest 158 182 6,400  Level Boston Center
05:11PM 44.0500 -68.8894 221° Southwest 152 175 6,500  Climbing Boston Center
05:12PM 44.0178 -68.9328 224° Southwest 158 182 6,400  Descending Boston Center
05:13PM 43.9883 -68.9736 225° Southwest 152 175 6,600  Climbing Boston Center
05:14PM 43.9558 -69.0128 221° Southwest 152 175 6,500 -60 Descending Boston Center
05:15PM 43.9247 -69.0550 224° Southwest 155 178 6,500  Level Boston Center
05:16PM 43.8931 -69.0964 223° Southwest 155 178 6,500  Level Boston Center
05:17PM 43.8614 -69.1347 221° Southwest 150 173 6,500  Level Boston Center
05:18PM 43.8281 -69.1797 224° Southwest 163 188 6,500  Level Boston Center
05:19PM 43.7886 -69.2294 222° Southwest 160 184 6,500  Level Boston Center
05:20PM 43.7561 -69.2717 223° Southwest 158 182 6,500  Level Boston Center
05:21PM 43.7242 -69.3122 223° Southwest 155 178 6,500  Level Boston Center
05:22PM 43.6908 -69.3553 223° Southwest 160 184 6,500  Level Boston Center
05:23PM 43.6592 -69.3956 223° Southwest 154 177 6,500  Level Boston Center
05:24PM 43.6236 -69.4394 222° Southwest 158 182 6,500  Level Boston Center
05:25PM 43.5925 -69.4808 224° Southwest 157 181 6,500  Level Boston Center
05:26PM 43.5589 -69.5225 222° Southwest 153 176 6,500  Level Boston Center
05:28PM 43.5256 -69.5636 222° Southwest 160 184 6,500  Level Boston Center
05:29PM 43.4939 -69.6053 224° Southwest 158 182 6,500  Level Boston Center
05:30PM 43.4581 -69.6503 222° Southwest 162 186 6,500  Level Boston Center
05:31PM 43.4236 -69.6922 221° Southwest 167 192 6,500 -60 Level Boston Center
05:32PM 43.3906 -69.7361 224° Southwest 165 190 6,400 -60 Descending Boston Center
05:33PM 43.3542 -69.7817 222° Southwest 163 188 6,400  Level Boston Center
05:34PM 43.3211 -69.8225 222° Southwest 161 185 6,500  Climbing Boston Center
05:35PM 43.2878 -69.8636 222° Southwest 162 186 6,400 -60 Descending Boston Center
05:36PM 43.2528 -69.9092 223° Southwest 162 186 6,400  Level Boston Center
05:37PM 43.2192 -69.9492 221° Southwest 160 184 6,400  Level Boston Center
05:38PM 43.1869 -69.9908 223° Southwest 160 184 6,400  Level Boston Center
05:39PM 43.1517 -70.0361 223° Southwest 161 185 6,400  Level Boston Center
05:40PM 43.1169 -70.0767 220° Southwest 164 189 6,400  Level Boston Center
05:41PM 43.0847 -70.1217 226° Southwest 165 190 6,400  Level Boston Center
05:42PM 43.0486 -70.1669 223° Southwest 163 188 6,400  Level Boston Center
05:43PM 43.0144 -70.2081 221° Southwest 164 189 6,400  Level Boston Center
05:44PM 42.9811 -70.2500 223° Southwest 163 188 6,400  Level Boston Center
05:45PM 42.9456 -70.2942 222° Southwest 160 184 6,400  Level Boston Center
05:46PM 42.9119 -70.3339 221° Southwest 159 183 6,400  Level Boston Center
05:47PM 42.8781 -70.3775 223° Southwest 166 191 6,400 -60 Level Boston Center
05:48PM 42.8425 -70.4178 220° Southwest 166 191 6,300 -240 Descending Boston Center
05:49PM 42.8025 -70.4653 221° Southwest 177 204 5,900 -540 Descending Boston Center
05:50PM 42.7644 -70.5172 225° Southwest 180 207 5,200 -600 Descending Boston Center
05:51PM 42.7289 -70.5636 224° Southwest 177 204 4,700 -360 Descending Boston Center
05:52PM 42.6928 -70.6044 220° Southwest 172 198 4,500 -120 Descending Boston Center
05:53PM 42.6581 -70.6439 220° Southwest 155 178 4,500  Level Boston Center
05:54PM 42.6322 -70.6878 231° Southwest 150 173 4,500  Level Boston Center
05:55PM 42.6044 -70.7300 228° Southwest 149 171 4,500  Level Boston Center
05:56PM 42.5808 -70.7719 233° Southwest 146 168 4,500  Level Boston Center
05:57PM 42.5556 -70.8158 232° Southwest 147 169 4,500 -60 Level Boston Center
05:58PM 42.5181 -70.8508 215° Southwest 166 191 4,400 -420 Descending Boston Center
05:59PM 42.4831 -70.8889 219° Southwest 170 196 3,700 -780 Descending Boston Center
06:00PM 42.4508 -70.8514 139° Southeast 205 236 2,900 -540 Descending Boston Center
06:01PM 42.4417 -70.7831 100° East 208 239 2,600 -300 Descending Boston Center
06:02PM 42.3961 -70.7936 190° South 183 211 2,400 -120 Descending Boston Center
06:03PM 42.3833 -70.8492 253° West 151 174 2,400 -480 Level Boston Center
06:04PM 42.3756 -70.9069 260° West 154 177 1,500 -900 Descending Boston Center
06:06PM 42.3658 -70.9608 256° West 159 183 600 -600 Descending Boston Center
06:07PM 42.3558 -71.0228 258° West 155 178 300 -300 Descending Boston Center